Airfield :
LOGIN :

Register | Disclaimer

   EN    FR    IT 

 










Legend :    VFR   Marginal VFR   IFR   Intensive IFR   Very Intensive IFR
Visi :
Ceiling :
>= 8 km
>= 3000ft
5 to 8 km
1000 to 3000 ft
1500m to 5 km
500 to 1000 ft
800 to 1500m
200 to 500 ft
< 800m
< 200 ft
Symbols :   Thunderstorms  Fog  Heavy snow  Heavy precipitations  Wind > 20 kt
SIGMETs :     Misc.  Thunderstorms  Icing  Turbulence  Mountain Waves  Volcanic Ashes






- Airport Elevation : 289 ft
- IATA code : ZAD


LDZD - Zadar

CURRENT METAR :
  • 181530Z 31008KT 9999 FEW050 06/M01 Q1023 NOSIG

EXPIRED METARs :
  • 181500Z 31011KT 9999 FEW050 07/M01 Q1023 NOSIG
  • 181430Z 31007KT 290V360 CAVOK 07/M01 Q1022 NOSIG
  • 181400Z 33007KT 290V020 9999 FEW050 07/M01 Q1023 NOSIG
  • 181330Z 29009KT 250V320 9999 FEW050 07/M01 Q1023 NOSIG
  • 181300Z 30006KT 260V360 CAVOK 07/M02 Q1023 TEMPO 30010KT

TAF TAF LDZD
Valid from the 18 at 12:00 until the 19 at 12:00 UTC


181125Z 1812/1912 30007KT CAVOK TX06/1812Z TNM04/1905Z
PROB40
TEMPO 1812/1816 30012KT
BECMG 1817/1819 VRB02KT
PROB30
TEMPO 1821/1907 1500 BCFG



MET'MAP, your aeronautical weather chart ! - Copyright ORBIFLY December 2007 - Disclaimer

ORBIFLY MET'MAP TEAM :

Programming & Development : Alexandra Zaïnal
Concept & original design : Baudouin d'Aumeries
Assistance for programming : Marc-Olivier Méhu
Technical & hardware support : Manuel Goepfert

Contact : metmap@orbifly.com




SOURCES & CREDITS :

   NOAA